sensor_id;sensor_type;location;lat;lon;timestamp;pressure;altitude;pressure_sealevel;temperature;humidity
29935;BME280;19905;53.370;-6.314;2023-07-31T00:02:27;99878.34;;;16.34;100.00
29935;BME280;19905;53.370;-6.314;2023-07-31T00:05:02;99878.00;;;16.37;100.00
29935;BME280;19905;53.370;-6.314;2023-07-31T00:07:46;99884.50;;;16.34;100.00
29935;BME280;19905;53.370;-6.314;2023-07-31T00:10:28;99873.34;;;16.31;100.00
29935;BME280;19905;53.370;-6.314;2023-07-31T00:13:20;99857.72;;;16.27;100.00
29935;BME280;19905;53.370;-6.314;2023-07-31T00:16:09;99877.38;;;16.26;100.00
29935;BME280;19905;53.370;-6.314;2023-07-31T00:22:04;99859.59;;;16.19;100.00
29935;BME280;19905;53.370;-6.314;2023-07-31T00:24:44;99855.44;;;16.16;100.00
29935;BME280;19905;53.370;-6.314;2023-07-31T00:27:38;99851.13;;;16.07;100.00
29935;BME280;19905;53.370;-6.314;2023-07-31T00:30:14;99856.00;;;16.04;100.00
29935;BME280;19905;53.370;-6.314;2023-07-31T00:33:03;99846.22;;;15.96;100.00
29935;BME280;19905;53.370;-6.314;2023-07-31T00:35:34;99843.22;;;15.99;100.00
29935;BME280;19905;53.370;-6.314;2023-07-31T00:38:10;99850.53;;;15.97;100.00
29935;BME280;19905;53.370;-6.314;2023-07-31T00:40:53;99838.19;;;16.04;100.00
29935;BME280;19905;53.370;-6.314;2023-07-31T00:43:22;99847.00;;;16.05;100.00
29935;BME280;19905;53.370;-6.314;2023-07-31T00:45:52;99857.34;;;15.99;100.00
29935;BME280;19905;53.370;-6.314;2023-07-31T00:48:23;99843.66;;;16.02;100.00
29935;BME280;19905;53.370;-6.314;2023-07-31T00:50:53;99830.06;;;15.97;100.00
29935;BME280;19905;53.370;-6.314;2023-07-31T00:53:35;99842.34;;;15.98;100.00
29935;BME280;19905;53.370;-6.314;2023-07-31T00:56:06;99854.00;;;16.06;100.00
29935;BME280;19905;53.370;-6.314;2023-07-31T00:58:39;99855.53;;;16.00;100.00
29935;BME280;19905;53.370;-6.314;2023-07-31T01:01:11;99851.34;;;15.97;100.00
29935;BME280;19905;53.370;-6.314;2023-07-31T01:03:59;99855.72;;;15.90;100.00
29935;BME280;19905;53.370;-6.314;2023-07-31T01:06:36;99853.72;;;15.92;100.00
29935;BME280;19905;53.370;-6.314;2023-07-31T01:09:11;99847.56;;;15.92;100.00
29935;BME280;19905;53.370;-6.314;2023-07-31T01:14:51;99848.69;;;15.97;100.00
29935;BME280;19905;53.370;-6.314;2023-07-31T01:17:23;99833.38;;;15.99;100.00
29935;BME280;19905;53.370;-6.314;2023-07-31T01:19:53;99828.56;;;15.95;100.00
29935;BME280;19905;53.370;-6.314;2023-07-31T01:22:45;99832.56;;;15.99;100.00
29935;BME280;19905;53.370;-6.314;2023-07-31T01:25:48;99843.22;;;15.99;100.00
29935;BME280;19905;53.370;-6.314;2023-07-31T01:28:22;99840.66;;;16.06;100.00
29935;BME280;19905;53.370;-6.314;2023-07-31T01:30:55;99841.75;;;15.88;100.00
29935;BME280;19905;53.370;-6.314;2023-07-31T01:33:28;99829.94;;;15.83;100.00
29935;BME280;19905;53.370;-6.314;2023-07-31T01:36:05;99837.28;;;15.81;100.00
29935;BME280;19905;53.370;-6.314;2023-07-31T01:38:41;99832.13;;;15.79;100.00
29935;BME280;19905;53.370;-6.314;2023-07-31T01:41:16;99836.09;;;15.83;100.00
29935;BME280;19905;53.370;-6.314;2023-07-31T01:43:46;99834.81;;;15.71;100.00
29935;BME280;19905;53.370;-6.314;2023-07-31T01:46:22;99837.31;;;15.72;100.00
29935;BME280;19905;53.370;-6.314;2023-07-31T01:48:52;99848.47;;;15.68;100.00
29935;BME280;19905;53.370;-6.314;2023-07-31T01:51:21;99839.31;;;15.70;100.00
29935;BME280;19905;53.370;-6.314;2023-07-31T01:53:50;99848.41;;;15.84;100.00
29935;BME280;19905;53.370;-6.314;2023-07-31T01:56:22;99854.13;;;15.73;100.00
29935;BME280;19905;53.370;-6.314;2023-07-31T01:58:52;99844.00;;;15.68;100.00
29935;BME280;19905;53.370;-6.314;2023-07-31T02:01:26;99851.47;;;15.73;100.00
29935;BME280;19905;53.370;-6.314;2023-07-31T02:03:58;99845.13;;;15.74;100.00
29935;BME280;19905;53.370;-6.314;2023-07-31T02:06:39;99862.09;;;15.73;100.00
29935;BME280;19905;53.370;-6.314;2023-07-31T02:09:10;99841.00;;;15.71;100.00
29935;BME280;19905;53.370;-6.314;2023-07-31T02:11:42;99855.97;;;15.72;100.00
29935;BME280;19905;53.370;-6.314;2023-07-31T02:14:20;99844.63;;;15.70;100.00
29935;BME280;19905;53.370;-6.314;2023-07-31T02:16:52;99851.47;;;15.73;100.00
29935;BME280;19905;53.370;-6.314;2023-07-31T02:19:30;99841.97;;;15.70;100.00
29935;BME280;19905;53.370;-6.314;2023-07-31T02:22:06;99846.78;;;15.75;100.00
29935;BME280;19905;53.370;-6.314;2023-07-31T02:24:48;99849.13;;;15.70;100.00
29935;BME280;19905;53.370;-6.314;2023-07-31T02:27:22;99848.09;;;15.79;100.00
29935;BME280;19905;53.370;-6.314;2023-07-31T02:29:54;99850.44;;;15.74;100.00
29935;BME280;19905;53.370;-6.314;2023-07-31T02:32:27;99855.47;;;15.69;100.00
29935;BME280;19905;53.370;-6.314;2023-07-31T02:35:00;99848.47;;;15.68;100.00
29935;BME280;19905;53.370;-6.314;2023-07-31T02:37:30;99842.97;;;15.69;100.00
29935;BME280;19905;53.370;-6.314;2023-07-31T02:40:00;99842.16;;;15.69;100.00
29935;BME280;19905;53.370;-6.314;2023-07-31T02:42:32;99839.31;;;15.70;100.00
29935;BME280;19905;53.370;-6.314;2023-07-31T02:45:01;99847.78;;;15.74;100.00
29935;BME280;19905;53.370;-6.314;2023-07-31T02:47:40;99837.13;;;15.74;100.00
29935;BME280;19905;53.370;-6.314;2023-07-31T02:50:14;99850.97;;;15.69;100.00
29935;BME280;19905;53.370;-6.314;2023-07-31T02:52:51;99838.78;;;15.75;100.00
29935;BME280;19905;53.370;-6.314;2023-07-31T02:55:21;99838.78;;;15.75;100.00
29935;BME280;19905;53.370;-6.314;2023-07-31T02:57:59;99833.78;;;15.80;100.00
29935;BME280;19905;53.370;-6.314;2023-07-31T03:00:34;99829.25;;;15.89;100.00
29935;BME280;19905;53.370;-6.314;2023-07-31T03:03:04;99820.97;;;15.75;100.00
29935;BME280;19905;53.370;-6.314;2023-07-31T03:08:43;99814.38;;;15.71;100.00
29935;BME280;19905;53.370;-6.314;2023-07-31T03:11:34;99808.16;;;15.79;100.00
29935;BME280;19905;53.370;-6.314;2023-07-31T03:14:06;99809.50;;;15.75;100.00
29935;BME280;19905;53.370;-6.314;2023-07-31T03:19:49;99811.22;;;15.68;100.00
29935;BME280;19905;53.370;-6.314;2023-07-31T03:22:27;99816.34;;;15.69;100.00
29935;BME280;19905;53.370;-6.314;2023-07-31T03:24:58;99825.00;;;15.63;100.00
29935;BME280;19905;53.370;-6.314;2023-07-31T03:27:27;99826.69;;;15.64;100.00
29935;BME280;19905;53.370;-6.314;2023-07-31T03:29:59;99823.50;;;15.69;100.00
29935;BME280;19905;53.370;-6.314;2023-07-31T03:32:30;99827.81;;;15.70;100.00
29935;BME280;19905;53.370;-6.314;2023-07-31T03:34:59;99824.50;;;15.76;100.00
29935;BME280;19905;53.370;-6.314;2023-07-31T03:37:31;99814.81;;;15.75;100.00
29935;BME280;19905;53.370;-6.314;2023-07-31T03:40:00;99805.84;;;15.76;100.00
29935;BME280;19905;53.370;-6.314;2023-07-31T03:42:30;99821.34;;;15.72;100.00
29935;BME280;19905;53.370;-6.314;2023-07-31T03:45:03;99811.84;;;15.78;100.00
29935;BME280;19905;53.370;-6.314;2023-07-31T03:47:31;99797.19;;;15.74;100.00
29935;BME280;19905;53.370;-6.314;2023-07-31T03:50:08;99777.03;;;15.80;100.00
29935;BME280;19905;53.370;-6.314;2023-07-31T03:52:50;99784.38;;;15.78;100.00
29935;BME280;19905;53.370;-6.314;2023-07-31T03:55:19;99778.19;;;15.85;100.00
29935;BME280;19905;53.370;-6.314;2023-07-31T03:57:54;99780.50;;;15.80;100.00
29935;BME280;19905;53.370;-6.314;2023-07-31T04:00:24;99793.72;;;15.73;100.00
29935;BME280;19905;53.370;-6.314;2023-07-31T04:02:54;99798.00;;;15.83;100.00
29935;BME280;19905;53.370;-6.314;2023-07-31T04:05:27;99794.84;;;15.79;100.00
29935;BME280;19905;53.370;-6.314;2023-07-31T04:07:57;99798.69;;;15.77;100.00
29935;BME280;19905;53.370;-6.314;2023-07-31T04:10:30;99801.81;;;15.80;100.00
29935;BME280;19905;53.370;-6.314;2023-07-31T04:13:07;99794.69;;;15.81;100.00
29935;BME280;19905;53.370;-6.314;2023-07-31T04:15:39;99795.22;;;15.76;100.00
29935;BME280;19905;53.370;-6.314;2023-07-31T04:18:10;99811.19;;;15.76;100.00
29935;BME280;19905;53.370;-6.314;2023-07-31T04:20:52;99808.34;;;15.78;100.00
29935;BME280;19905;53.370;-6.314;2023-07-31T04:23:22;99819.81;;;15.78;100.00
29935;BME280;19905;53.370;-6.314;2023-07-31T04:25:51;99831.81;;;15.74;100.00
29935;BME280;19905;53.370;-6.314;2023-07-31T04:28:25;99826.81;;;15.71;100.00
29935;BME280;19905;53.370;-6.314;2023-07-31T04:30:56;99823.34;;;15.70;100.00
29935;BME280;19905;53.370;-6.314;2023-07-31T04:33:27;99830.50;;;15.70;100.00
29935;BME280;19905;53.370;-6.314;2023-07-31T04:35:55;99810.72;;;15.64;100.00
29935;BME280;19905;53.370;-6.314;2023-07-31T04:38:24;99810.38;;;15.59;100.00
29935;BME280;19905;53.370;-6.314;2023-07-31T04:40:59;99808.88;;;15.65;100.00
29935;BME280;19905;53.370;-6.314;2023-07-31T04:43:29;99811.38;;;15.66;100.00
29935;BME280;19905;53.370;-6.314;2023-07-31T04:46:05;99802.41;;;15.67;100.00
29935;BME280;19905;53.370;-6.314;2023-07-31T04:48:33;99799.06;;;15.65;100.00
29935;BME280;19905;53.370;-6.314;2023-07-31T04:51:03;99813.16;;;15.74;100.00
29935;BME280;19905;53.370;-6.314;2023-07-31T04:53:34;99805.06;;;15.59;100.00
29935;BME280;19905;53.370;-6.314;2023-07-31T04:56:04;99810.00;;;15.62;100.00
29935;BME280;19905;53.370;-6.314;2023-07-31T04:58:36;99799.72;;;15.67;100.00
29935;BME280;19905;53.370;-6.314;2023-07-31T05:01:06;99800.38;;;15.61;100.00
29935;BME280;19905;53.370;-6.314;2023-07-31T05:03:36;99815.84;;;15.58;100.00
29935;BME280;19905;53.370;-6.314;2023-07-31T05:06:07;99833.34;;;15.68;100.00
29935;BME280;19905;53.370;-6.314;2023-07-31T05:08:36;99828.50;;;15.56;100.00
29935;BME280;19905;53.370;-6.314;2023-07-31T05:11:13;99848.97;;;15.55;100.00
29935;BME280;19905;53.370;-6.314;2023-07-31T05:13:52;99837.63;;;15.61;100.00
29935;BME280;19905;53.370;-6.314;2023-07-31T05:16:23;99846.16;;;15.65;100.00
29935;BME280;19905;53.370;-6.314;2023-07-31T05:19:01;99839.66;;;15.59;100.00
29935;BME280;19905;53.370;-6.314;2023-07-31T05:21:30;99853.97;;;15.50;100.00
29935;BME280;19905;53.370;-6.314;2023-07-31T05:24:02;99831.03;;;15.49;100.00
29935;BME280;19905;53.370;-6.314;2023-07-31T05:26:31;99845.19;;;15.41;100.00
29935;BME280;19905;53.370;-6.314;2023-07-31T05:29:02;99858.50;;;15.33;100.00
29935;BME280;19905;53.370;-6.314;2023-07-31T05:31:35;99844.72;;;15.21;100.00
29935;BME280;19905;53.370;-6.314;2023-07-31T05:34:07;99841.38;;;15.19;100.00
29935;BME280;19905;53.370;-6.314;2023-07-31T05:36:38;99841.88;;;15.31;100.00
29935;BME280;19905;53.370;-6.314;2023-07-31T05:39:07;99836.72;;;15.30;100.00
29935;BME280;19905;53.370;-6.314;2023-07-31T05:41:36;99849.81;;;15.39;100.00
29935;BME280;19905;53.370;-6.314;2023-07-31T05:44:05;99826.22;;;15.44;100.00
29935;BME280;19905;53.370;-6.314;2023-07-31T05:46:37;99829.53;;;15.38;100.00
29935;BME280;19905;53.370;-6.314;2023-07-31T05:49:12;99840.19;;;15.46;100.00
29935;BME280;19905;53.370;-6.314;2023-07-31T05:51:43;99825.88;;;15.47;100.00
29935;BME280;19905;53.370;-6.314;2023-07-31T05:54:18;99821.72;;;15.45;100.00
29935;BME280;19905;53.370;-6.314;2023-07-31T05:56:54;99818.72;;;15.48;100.00
29935;BME280;19905;53.370;-6.314;2023-07-31T05:59:26;99823.56;;;15.44;100.00
29935;BME280;19905;53.370;-6.314;2023-07-31T06:01:56;99817.56;;;15.42;100.00
29935;BME280;19905;53.370;-6.314;2023-07-31T06:04:34;99827.56;;;15.40;100.00
29935;BME280;19905;53.370;-6.314;2023-07-31T06:07:05;99826.56;;;15.33;100.00
29935;BME280;19905;53.370;-6.314;2023-07-31T06:09:34;99816.63;;;15.27;100.00
29935;BME280;19905;53.370;-6.314;2023-07-31T06:12:05;99813.44;;;15.23;100.00
29935;BME280;19905;53.370;-6.314;2023-07-31T06:14:40;99817.28;;;15.21;100.00
29935;BME280;19905;53.370;-6.314;2023-07-31T06:17:13;99812.16;;;15.03;100.00
29935;BME280;19905;53.370;-6.314;2023-07-31T06:19:41;99811.31;;;15.03;100.00
29935;BME280;19905;53.370;-6.314;2023-07-31T06:22:10;99823.13;;;14.92;100.00
29935;BME280;19905;53.370;-6.314;2023-07-31T06:24:39;99819.13;;;14.96;100.00
29935;BME280;19905;53.370;-6.314;2023-07-31T06:27:09;99813.16;;;14.94;100.00
29935;BME280;19905;53.370;-6.314;2023-07-31T06:29:38;99807.34;;;14.98;100.00
29935;BME280;19905;53.370;-6.314;2023-07-31T06:32:07;99801.69;;;15.02;100.00
29935;BME280;19905;53.370;-6.314;2023-07-31T06:34:38;99795.19;;;15.04;100.00
29935;BME280;19905;53.370;-6.314;2023-07-31T06:37:07;99795.19;;;15.04;100.00
29935;BME280;19905;53.370;-6.314;2023-07-31T06:39:36;99813.31;;;15.09;100.00
29935;BME280;19905;53.370;-6.314;2023-07-31T06:42:06;99806.50;;;14.98;100.00
29935;BME280;19905;53.370;-6.314;2023-07-31T06:44:36;99808.00;;;15.00;100.00
29935;BME280;19905;53.370;-6.314;2023-07-31T06:47:11;99804.00;;;15.05;100.00
29935;BME280;19905;53.370;-6.314;2023-07-31T06:49:42;99828.78;;;15.05;100.00
29935;BME280;19905;53.370;-6.314;2023-07-31T06:52:12;99818.47;;;15.10;100.00
29935;BME280;19905;53.370;-6.314;2023-07-31T06:57:16;99814.78;;;15.19;100.00
29935;BME280;19905;53.370;-6.314;2023-07-31T06:59:44;99801.16;;;15.14;100.00
29935;BME280;19905;53.370;-6.314;2023-07-31T07:02:15;99801.66;;;15.10;100.00
29935;BME280;19905;53.370;-6.314;2023-07-31T07:04:45;99798.69;;;15.13;100.00
29935;BME280;19905;53.370;-6.314;2023-07-31T07:07:18;99782.88;;;15.11;100.00
29935;BME280;19905;53.370;-6.314;2023-07-31T07:09:47;99765.75;;;15.14;100.00
29935;BME280;19905;53.370;-6.314;2023-07-31T07:12:17;99758.97;;;15.03;100.00
29935;BME280;19905;53.370;-6.314;2023-07-31T07:14:49;99768.28;;;14.99;100.00
29935;BME280;19905;53.370;-6.314;2023-07-31T07:17:35;99779.75;;;14.99;100.00
29935;BME280;19905;53.370;-6.314;2023-07-31T07:20:09;99789.06;;;15.04;100.00
29935;BME280;19905;53.370;-6.314;2023-07-31T07:22:52;99787.03;;;15.06;100.00
29935;BME280;19905;53.370;-6.314;2023-07-31T07:25:38;99806.47;;;15.14;100.00
29935;BME280;19905;53.370;-6.314;2023-07-31T07:28:25;99809.31;;;15.13;100.00
29935;BME280;19905;53.370;-6.314;2023-07-31T07:30:59;99796.16;;;15.11;100.00
29935;BME280;19905;53.370;-6.314;2023-07-31T07:34:01;99787.38;;;15.11;100.00
29935;BME280;19905;53.370;-6.314;2023-07-31T07:36:46;99793.03;;;15.08;100.00
29935;BME280;19905;53.370;-6.314;2023-07-31T07:39:19;99791.41;;;14.98;100.00
29935;BME280;19905;53.370;-6.314;2023-07-31T07:41:57;99789.22;;;15.02;100.00
29935;BME280;19905;53.370;-6.314;2023-07-31T07:44:35;99791.53;;;14.97;100.00
29935;BME280;19905;53.370;-6.314;2023-07-31T07:50:47;99777.75;;;14.93;100.00
29935;BME280;19905;53.370;-6.314;2023-07-31T08:08:31;99753.28;;;15.14;100.00
29935;BME280;19905;53.370;-6.314;2023-07-31T08:22:32;99801.47;;;15.19;100.00
29935;BME280;19905;53.370;-6.314;2023-07-31T08:32:34;99816.63;;;15.11;100.00
29935;BME280;19905;53.370;-6.314;2023-07-31T08:36:15;99818.13;;;15.05;100.00
29935;BME280;19905;53.370;-6.314;2023-07-31T08:39:49;99830.94;;;14.93;100.00
29935;BME280;19905;53.370;-6.314;2023-07-31T08:43:16;99808.34;;;14.89;100.00
29935;BME280;19905;53.370;-6.314;2023-07-31T09:08:22;99752.06;;;15.33;100.00
29935;BME280;19905;53.370;-6.314;2023-07-31T09:14:35;99734.66;;;15.22;100.00
29935;BME280;19905;53.370;-6.314;2023-07-31T10:00:09;99793.38;;;14.96;100.00
29935;BME280;19905;53.370;-6.314;2023-07-31T10:10:38;99774.06;;;15.19;100.00
29935;BME280;19905;53.370;-6.314;2023-07-31T10:33:13;99798.34;;;14.51;100.00
29935;BME280;19905;53.370;-6.314;2023-07-31T10:39:37;99810.00;;;14.58;100.00
29935;BME280;19905;53.370;-6.314;2023-07-31T10:46:37;99823.78;;;14.61;100.00
29935;BME280;19905;53.370;-6.314;2023-07-31T11:52:59;99792.50;;;15.20;100.00
29935;BME280;19905;53.370;-6.314;2023-07-31T13:14:50;99670.88;;;15.45;100.00
29935;BME280;19905;53.370;-6.314;2023-07-31T13:17:42;99678.88;;;15.77;100.00
29935;BME280;19905;53.370;-6.314;2023-07-31T13:20:58;99691.53;;;15.97;100.00
29935;BME280;19905;53.370;-6.314;2023-07-31T13:24:40;99677.09;;;16.15;100.00
29935;BME280;19905;53.370;-6.314;2023-07-31T13:27:35;99672.94;;;16.35;100.00
29935;BME280;19905;53.370;-6.314;2023-07-31T13:30:35;99659.00;;;16.48;100.00
29935;BME280;19905;53.370;-6.314;2023-07-31T13:33:09;99625.25;;;16.78;100.00
29935;BME280;19905;53.370;-6.314;2023-07-31T13:36:18;99612.41;;;17.33;100.00
29935;BME280;19905;53.370;-6.314;2023-07-31T13:38:55;99607.31;;;17.59;100.00
29935;BME280;19905;53.370;-6.314;2023-07-31T13:42:00;99597.16;;;17.48;100.00
29935;BME280;19905;53.370;-6.314;2023-07-31T13:45:00;99607.88;;;17.33;100.00
29935;BME280;19905;53.370;-6.314;2023-07-31T13:48:20;99607.78;;;17.26;100.00
29935;BME280;19905;53.370;-6.314;2023-07-31T13:51:21;99605.16;;;17.12;100.00
29935;BME280;19905;53.370;-6.314;2023-07-31T13:53:50;99602.34;;;16.84;100.00
29935;BME280;19905;53.370;-6.314;2023-07-31T13:56:28;99633.47;;;16.16;100.00
29935;BME280;19905;53.370;-6.314;2023-07-31T13:58:58;99675.97;;;15.55;100.00
29935;BME280;19905;53.370;-6.314;2023-07-31T14:01:29;99681.84;;;15.42;100.00
29935;BME280;19905;53.370;-6.314;2023-07-31T14:04:05;99702.09;;;15.51;100.00
29935;BME280;19905;53.370;-6.314;2023-07-31T14:06:34;99686.84;;;15.45;100.00
29935;BME280;19905;53.370;-6.314;2023-07-31T14:09:05;99691.97;;;15.47;100.00
29935;BME280;19905;53.370;-6.314;2023-07-31T14:11:34;99687.50;;;16.24;100.00
29935;BME280;19905;53.370;-6.314;2023-07-31T14:14:06;99688.88;;;16.58;100.00
29935;BME280;19905;53.370;-6.314;2023-07-31T14:16:35;99658.25;;;17.07;100.00
29935;BME280;19905;53.370;-6.314;2023-07-31T14:19:09;99634.22;;;17.58;100.00
29935;BME280;19905;53.370;-6.314;2023-07-31T14:21:38;99619.28;;;17.63;100.00
29935;BME280;19905;53.370;-6.314;2023-07-31T14:24:07;99613.41;;;17.89;100.00
29935;BME280;19905;53.370;-6.314;2023-07-31T14:26:41;99611.84;;;18.23;100.00
29935;BME280;19905;53.370;-6.314;2023-07-31T14:29:11;99591.47;;;17.94;100.00
29935;BME280;19905;53.370;-6.314;2023-07-31T14:31:39;99540.06;;;18.54;100.00
29935;BME280;19905;53.370;-6.314;2023-07-31T14:34:10;99566.22;;;18.59;100.00
29935;BME280;19905;53.370;-6.314;2023-07-31T14:36:39;99559.72;;;18.34;100.00
29935;BME280;19905;53.370;-6.314;2023-07-31T14:39:09;99578.47;;;19.16;100.00
29935;BME280;19905;53.370;-6.314;2023-07-31T14:41:40;99558.59;;;18.21;100.00
29935;BME280;19905;53.370;-6.314;2023-07-31T14:44:08;99592.00;;;17.68;100.00
29935;BME280;19905;53.370;-6.314;2023-07-31T14:46:37;99596.38;;;17.33;100.00
29935;BME280;19905;53.370;-6.314;2023-07-31T14:49:12;99615.06;;;17.18;100.00
29935;BME280;19905;53.370;-6.314;2023-07-31T14:51:41;99578.75;;;17.02;100.00
29935;BME280;19905;53.370;-6.314;2023-07-31T14:54:16;99583.03;;;17.18;100.00
29935;BME280;19905;53.370;-6.314;2023-07-31T14:56:44;99580.56;;;17.16;100.00
29935;BME280;19905;53.370;-6.314;2023-07-31T14:59:12;99589.78;;;17.14;100.00
29935;BME280;19905;53.370;-6.314;2023-07-31T15:01:42;99597.81;;;17.14;100.00
29935;BME280;19905;53.370;-6.314;2023-07-31T15:04:13;99591.91;;;17.03;100.00
29935;BME280;19905;53.370;-6.314;2023-07-31T15:06:43;99582.75;;;16.91;100.00
29935;BME280;19905;53.370;-6.314;2023-07-31T15:09:18;99571.03;;;16.63;100.00
29935;BME280;19905;53.370;-6.314;2023-07-31T15:11:49;99614.53;;;16.63;100.00
29935;BME280;19905;53.370;-6.314;2023-07-31T15:14:19;99613.81;;;16.84;100.00
29935;BME280;19905;53.370;-6.314;2023-07-31T15:16:49;99601.59;;;16.90;100.00
29935;BME280;19905;53.370;-6.314;2023-07-31T15:19:24;99627.47;;;16.66;100.00
29935;BME280;19905;53.370;-6.314;2023-07-31T15:21:55;99582.00;;;16.68;100.00
29935;BME280;19905;53.370;-6.314;2023-07-31T15:24:25;99610.84;;;16.49;100.00
29935;BME280;19905;53.370;-6.314;2023-07-31T15:26:58;99620.91;;;16.24;100.00
29935;BME280;19905;53.370;-6.314;2023-07-31T15:29:29;99628.44;;;15.98;100.00
29935;BME280;19905;53.370;-6.314;2023-07-31T15:32:19;99654.13;;;15.68;100.00
29935;BME280;19905;53.370;-6.314;2023-07-31T15:34:52;99669.22;;;15.44;100.00
29935;BME280;19905;53.370;-6.314;2023-07-31T15:37:36;99670.00;;;15.14;100.00
29935;BME280;19905;53.370;-6.314;2023-07-31T15:40:07;99685.34;;;15.04;100.00
29935;BME280;19905;53.370;-6.314;2023-07-31T15:42:36;99706.59;;;15.04;100.00
29935;BME280;19905;53.370;-6.314;2023-07-31T15:45:07;99700.97;;;14.98;100.00
29935;BME280;19905;53.370;-6.314;2023-07-31T15:47:37;99699.28;;;14.97;100.00
29935;BME280;19905;53.370;-6.314;2023-07-31T15:50:09;99702.13;;;14.96;100.00
29935;BME280;19905;53.370;-6.314;2023-07-31T15:52:37;99696.50;;;14.91;100.00
29935;BME280;19905;53.370;-6.314;2023-07-31T15:55:07;99708.59;;;14.93;100.00
29935;BME280;19905;53.370;-6.314;2023-07-31T15:57:37;99689.16;;;15.01;100.00
29935;BME280;19905;53.370;-6.314;2023-07-31T16:00:07;99697.44;;;15.06;100.00
29935;BME280;19905;53.370;-6.314;2023-07-31T16:02:36;99691.47;;;15.12;100.00
29935;BME280;19905;53.370;-6.314;2023-07-31T16:05:08;99672.44;;;15.23;100.00
29935;BME280;19905;53.370;-6.314;2023-07-31T16:07:39;99674.38;;;15.38;100.00
29935;BME280;19905;53.370;-6.314;2023-07-31T16:10:38;99661.03;;;15.46;100.00
29935;BME280;19905;53.370;-6.314;2023-07-31T16:13:06;99651.16;;;15.63;100.00
29935;BME280;19905;53.370;-6.314;2023-07-31T16:15:36;99643.84;;;15.57;100.00
29935;BME280;19905;53.370;-6.314;2023-07-31T16:18:06;99643.94;;;15.40;100.00
29935;BME280;19905;53.370;-6.314;2023-07-31T16:20:39;99644.63;;;15.34;100.00
29935;BME280;19905;53.370;-6.314;2023-07-31T16:23:08;99632.25;;;15.49;100.00
29935;BME280;19905;53.370;-6.314;2023-07-31T16:25:37;99643.81;;;15.65;100.00
29935;BME280;19905;53.370;-6.314;2023-07-31T16:28:08;99623.69;;;16.31;100.00
29935;BME280;19905;53.370;-6.314;2023-07-31T16:30:39;99605.16;;;18.06;100.00
29935;BME280;19905;53.370;-6.314;2023-07-31T16:33:08;99577.97;;;18.93;100.00
29935;BME280;19905;53.370;-6.314;2023-07-31T16:35:40;99534.75;;;19.77;100.00
29935;BME280;19905;53.370;-6.314;2023-07-31T16:38:11;99507.53;;;19.87;100.00
29935;BME280;19905;53.370;-6.314;2023-07-31T16:40:41;99514.34;;;20.02;100.00
29935;BME280;19905;53.370;-6.314;2023-07-31T16:43:17;99518.94;;;19.08;100.00
29935;BME280;19905;53.370;-6.314;2023-07-31T16:45:47;99525.41;;;18.37;100.00
29935;BME280;19905;53.370;-6.314;2023-07-31T16:48:20;99518.59;;;19.50;100.00
29935;BME280;19905;53.370;-6.314;2023-07-31T16:50:54;99494.97;;;19.74;100.00
29935;BME280;19905;53.370;-6.314;2023-07-31T16:53:24;99480.13;;;19.78;100.00
29935;BME280;19905;53.370;-6.314;2023-07-31T16:56:08;99496.56;;;19.48;100.00
29935;BME280;19905;53.370;-6.314;2023-07-31T16:58:38;99534.38;;;18.29;100.00
29935;BME280;19905;53.370;-6.314;2023-07-31T17:01:10;99521.50;;;19.49;100.00
29935;BME280;19905;53.370;-6.314;2023-07-31T17:03:44;99499.06;;;19.83;100.00
29935;BME280;19905;53.370;-6.314;2023-07-31T17:06:50;99479.59;;;20.47;100.00
29935;BME280;19905;53.370;-6.314;2023-07-31T17:09:27;99489.38;;;20.87;100.00
29935;BME280;19905;53.370;-6.314;2023-07-31T17:12:19;99471.06;;;20.70;100.00
29935;BME280;19905;53.370;-6.314;2023-07-31T17:14:59;99480.34;;;21.13;100.00
29935;BME280;19905;53.370;-6.314;2023-07-31T17:17:30;99460.31;;;20.77;100.00
29935;BME280;19905;53.370;-6.314;2023-07-31T17:20:08;99463.59;;;21.17;100.00
29935;BME280;19905;53.370;-6.314;2023-07-31T17:44:04;99431.94;;;21.76;100.00
29935;BME280;19905;53.370;-6.314;2023-07-31T17:46:32;99439.13;;;21.25;100.00
29935;BME280;19905;53.370;-6.314;2023-07-31T17:49:01;99440.66;;;21.15;100.00
29935;BME280;19905;53.370;-6.314;2023-07-31T17:51:32;99432.22;;;21.11;100.00
29935;BME280;19905;53.370;-6.314;2023-07-31T17:54:00;99429.75;;;21.66;100.00
29935;BME280;19905;53.370;-6.314;2023-07-31T17:56:28;99419.78;;;21.48;100.00
29935;BME280;19905;53.370;-6.314;2023-07-31T17:58:58;99430.41;;;20.09;100.00
29935;BME280;19905;53.370;-6.314;2023-07-31T18:01:28;99436.53;;;20.16;100.00
29935;BME280;19905;53.370;-6.314;2023-07-31T18:03:57;99432.59;;;20.25;100.00
29935;BME280;19905;53.370;-6.314;2023-07-31T18:06:26;99443.56;;;20.75;100.00
29935;BME280;19905;53.370;-6.314;2023-07-31T18:08:55;99457.38;;;19.14;100.00
29935;BME280;19905;53.370;-6.314;2023-07-31T18:11:23;99464.59;;;18.52;100.00
29935;BME280;19905;53.370;-6.314;2023-07-31T18:13:53;99481.47;;;19.08;100.00
29935;BME280;19905;53.370;-6.314;2023-07-31T18:16:22;99449.31;;;20.27;100.00
29935;BME280;19905;53.370;-6.314;2023-07-31T18:18:52;99434.34;;;20.64;100.00
29935;BME280;19905;53.370;-6.314;2023-07-31T18:21:22;99447.97;;;21.01;100.00
29935;BME280;19905;53.370;-6.314;2023-07-31T18:23:50;99454.22;;;20.95;100.00
29935;BME280;19905;53.370;-6.314;2023-07-31T18:26:26;99421.22;;;20.49;100.00
29935;BME280;19905;53.370;-6.314;2023-07-31T18:28:54;99439.91;;;21.08;100.00
29935;BME280;19905;53.370;-6.314;2023-07-31T18:31:23;99434.63;;;20.94;100.00
29935;BME280;19905;53.370;-6.314;2023-07-31T18:33:54;99461.47;;;21.26;100.00
29935;BME280;19905;53.370;-6.314;2023-07-31T18:36:24;99447.91;;;21.14;100.00
29935;BME280;19905;53.370;-6.314;2023-07-31T18:38:53;99444.56;;;20.87;100.00
29935;BME280;19905;53.370;-6.314;2023-07-31T18:41:24;99459.06;;;21.11;100.00
29935;BME280;19905;53.370;-6.314;2023-07-31T18:43:53;99458.66;;;21.14;100.00